Date,TemperatureHighF,TemperatureAvgF,TemperatureLowF,DewpointHighF,DewpointAvgF,DewpointLowF,HumidityHigh,HumidityAvg,HumidityLow,PressureMaxIn,PressureMinIn,WindSpeedMaxMPH,WindSpeedAvgMPH,GustSpeedMaxMPH,PrecipitationSumIn
2014-2-1,52,40,31,36,29,25,83,65,52,30.16,29.89,17,1,17,0.02
2014-2-2,43,37,29,39,34,28,95,89,66,30.15,29.89,8,0,12,0.22
2014-2-3,32,27,18,29,25,14,95,90,84,30.32,30.06,12,0,12,0.04
2014-2-4,34,23,11,27,19,8,92,85,74,30.39,30.03,17,1,17,0.01
2014-2-5,38,29,21,37,27,17,96,91,83,30.20,29.61,35,5,35,0.01
2014-2-6,27,21,17,18,16,14,89,80,64,30.33,30.20,14,4,20,0.02
2014-2-7,26,18,12,18,11,3,96,72,57,30.32,30.23,29,5,29,0.00
2014-2-8,22,14,5,10,6,1,85,70,55,30.31,30.15,12,0,12,0.00
2014-2-9,30,22,16,28,18,11,93,87,79,30.15,29.90,22,2,22,0.00
2014-2-10,24,16,11,17,11,6,88,80,68,30.29,30.11,18,2,18,0.00
2014-2-11,25,14,7,18,8,1,86,76,63,30.43,30.28,17,1,17,0.00
2014-2-12,30,15,2,16,7,-3,84,70,53,30.42,30.10,25,2,25,0.00
2014-2-13,29,24,20,27,21,13,99,86,72,30.10,29.55,14,1,14,0.00
2014-2-14,33,28,21,29,23,18,92,84,72,29.73,29.50,38,4,38,0.00
2014-2-15,28,25,13,25,20,7,92,84,72,30.03,29.65,27,2,27,0.00
2014-2-16,26,17,5,23,13,0,92,84,78,30.27,29.95,18,1,18,0.00
2014-2-17,37,22,2,22,12,-2,88,68,46,30.39,29.87,38,2,38,0.07
2014-2-18,42,33,25,35,29,22,95,87,73,30.04,29.83,35,5,38,0.25
2014-2-19,48,38,26,44,34,23,96,87,71,30.14,29.69,36,4,36,0.69
2014-2-20,48,39,23,42,32,20,94,78,59,30.15,29.75,23,1,23,0.12
2014-2-21,56,45,36,50,38,23,92,76,54,29.96,29.61,25,6,32,0.22
2014-2-22,53,41,30,30,26,21,76,55,37,30.03,29.93,34,5,34,0.00
2014-2-23,45,35,30,36,29,20,89,78,62,30.04,29.94,25,2,25,0.00
2014-2-24,32,26,22,21,15,11,71,62,54,30.11,29.98,31,6,31,0.00
2014-2-25,27,23,20,21,16,11,84,75,63,30.08,29.93,22,3,22,0.01
2014-2-26,23,18,12,18,9,2,86,69,52,30.02,29.76,30,4,30,0.00
2014-2-27,23,14,4,16,6,-3,83,72,60,30.13,29.62,38,8,38,0.00
2014-2-28,29,13,-3,7,0,-8,81,57,36,30.33,30.13,20,0,20,0.00